Portada
METAR-TAF:

METAR-TAF

Aeroports :

Francis S. Gabreski Airport

Westhampton Beach, Nova York, Estats Units d'Amèrica

latitud: 40-51-03N, longitud: 072-37-14W, altitud: 20 m

Observació

L'informe es va fer fa 20 minuts, a les 17:43 UTC
Vent 15 kt del Nord-Est amb ràfegues de 23 kt
Temperatura 4°C
Humitat 81%
Pressió 1025 hPa
Visibilitat: 16.1 km
Escasses núvols a una alçada de 1900 ft
Núvols disperses a una alçada de 2600 ft
Cel cobert a una alçada de 3300 ft
pluja

METAR: KFOK 171743Z 04015G23KT 10SM -RA FEW019 SCT026 OVC033 04/01 A3026 RMK AO2 P0000 T00390006

Hora: 13:03 (18:03 UTC)


TAF: manca

Observacions i pronòstics meteorològics de més de 4000 aeroports (METAR i TAF).

Les estacions disponibles són els punts grocs i vermells al mapa.

Posi el ratolí al punt desitjat per veure el nom de l'estació.

Feu clic per veure les observacions i els pronòstics meteorològics.

Per canviar el mapa: feu clic els botons verds amb una creu de color negre per apropar; al botó verd amb un guió per allunyar la imatge; o en les fletxes verdes per a mapes adjacents.


METAR-TAF: